sensor_id;sensor_type;location;lat;lon;timestamp;pressure;altitude;pressure_sealevel;temperature
22828;BMP180;11580;52.562;13.418;2023-04-09T00:00:19;101737.00;;;9.90
22828;BMP180;11580;52.562;13.418;2023-04-09T00:02:47;101739.00;;;9.80
22828;BMP180;11580;52.562;13.418;2023-04-09T00:05:14;101741.00;;;9.80
22828;BMP180;11580;52.562;13.418;2023-04-09T00:07:41;101732.00;;;9.80
22828;BMP180;11580;52.562;13.418;2023-04-09T00:10:09;101732.00;;;9.80
22828;BMP180;11580;52.562;13.418;2023-04-09T00:12:36;101726.00;;;9.70
22828;BMP180;11580;52.562;13.418;2023-04-09T00:15:04;101725.00;;;9.70
22828;BMP180;11580;52.562;13.418;2023-04-09T00:17:33;101729.00;;;9.70
22828;BMP180;11580;52.562;13.418;2023-04-09T00:20:00;101726.00;;;9.70
22828;BMP180;11580;52.562;13.418;2023-04-09T00:22:29;101721.00;;;9.70
22828;BMP180;11580;52.562;13.418;2023-04-09T00:24:56;101727.00;;;9.70
22828;BMP180;11580;52.562;13.418;2023-04-09T00:27:23;101722.00;;;9.70
22828;BMP180;11580;52.562;13.418;2023-04-09T00:29:52;101721.00;;;9.60
22828;BMP180;11580;52.562;13.418;2023-04-09T00:32:20;101721.00;;;9.60
22828;BMP180;11580;52.562;13.418;2023-04-09T00:34:48;101720.00;;;9.60
22828;BMP180;11580;52.562;13.418;2023-04-09T00:37:16;101720.00;;;9.60
22828;BMP180;11580;52.562;13.418;2023-04-09T00:39:43;101722.00;;;9.60
22828;BMP180;11580;52.562;13.418;2023-04-09T00:42:10;101710.00;;;9.60
22828;BMP180;11580;52.562;13.418;2023-04-09T00:44:37;101707.00;;;9.50
22828;BMP180;11580;52.562;13.418;2023-04-09T00:47:04;101714.00;;;9.50
22828;BMP180;11580;52.562;13.418;2023-04-09T00:49:32;101708.00;;;9.50
22828;BMP180;11580;52.562;13.418;2023-04-09T00:52:00;101712.00;;;9.50
22828;BMP180;11580;52.562;13.418;2023-04-09T00:54:28;101710.00;;;9.50
22828;BMP180;11580;52.562;13.418;2023-04-09T00:56:56;101709.00;;;9.50
22828;BMP180;11580;52.562;13.418;2023-04-09T00:59:24;101716.00;;;9.50
22828;BMP180;11580;52.562;13.418;2023-04-09T01:01:51;101719.00;;;9.50
22828;BMP180;11580;52.562;13.418;2023-04-09T01:04:19;101720.00;;;9.40
22828;BMP180;11580;52.562;13.418;2023-04-09T01:06:51;101706.00;;;9.40
22828;BMP180;11580;52.562;13.418;2023-04-09T01:09:30;101712.00;;;9.40
22828;BMP180;11580;52.562;13.418;2023-04-09T01:12:09;101712.00;;;9.40
22828;BMP180;11580;52.562;13.418;2023-04-09T01:17:33;101711.00;;;9.30
22828;BMP180;11580;52.562;13.418;2023-04-09T01:20:09;101710.00;;;9.30
22828;BMP180;11580;52.562;13.418;2023-04-09T01:22:51;101708.00;;;9.20
22828;BMP180;11580;52.562;13.418;2023-04-09T01:25:44;101714.00;;;9.20
22828;BMP180;11580;52.562;13.418;2023-04-09T01:28:22;101709.00;;;9.20
22828;BMP180;11580;52.562;13.418;2023-04-09T01:30:59;101708.00;;;9.20
22828;BMP180;11580;52.562;13.418;2023-04-09T01:33:29;101710.00;;;9.10
22828;BMP180;11580;52.562;13.418;2023-04-09T01:35:58;101703.00;;;9.10
22828;BMP180;11580;52.562;13.418;2023-04-09T01:38:27;101711.00;;;9.00
22828;BMP180;11580;52.562;13.418;2023-04-09T01:40:55;101710.00;;;9.00
22828;BMP180;11580;52.562;13.418;2023-04-09T01:43:26;101705.00;;;9.00
22828;BMP180;11580;52.562;13.418;2023-04-09T01:45:54;101707.00;;;8.90
22828;BMP180;11580;52.562;13.418;2023-04-09T01:48:22;101708.00;;;8.90
22828;BMP180;11580;52.562;13.418;2023-04-09T01:50:50;101714.00;;;8.90
22828;BMP180;11580;52.562;13.418;2023-04-09T01:53:18;101718.00;;;8.90
22828;BMP180;11580;52.562;13.418;2023-04-09T01:55:45;101716.00;;;8.90
22828;BMP180;11580;52.562;13.418;2023-04-09T01:58:13;101725.00;;;8.90
22828;BMP180;11580;52.562;13.418;2023-04-09T02:00:47;101725.00;;;8.90
22828;BMP180;11580;52.562;13.418;2023-04-09T02:03:20;101722.00;;;8.80
22828;BMP180;11580;52.562;13.418;2023-04-09T02:05:56;101719.00;;;8.80
22828;BMP180;11580;52.562;13.418;2023-04-09T02:08:26;101723.00;;;8.80
22828;BMP180;11580;52.562;13.418;2023-04-09T02:10:57;101719.00;;;8.80
22828;BMP180;11580;52.562;13.418;2023-04-09T02:13:28;101728.00;;;8.80
22828;BMP180;11580;52.562;13.418;2023-04-09T02:15:59;101720.00;;;8.80
22828;BMP180;11580;52.562;13.418;2023-04-09T02:18:29;101729.00;;;8.80
22828;BMP180;11580;52.562;13.418;2023-04-09T02:20:58;101726.00;;;8.80
22828;BMP180;11580;52.562;13.418;2023-04-09T02:23:26;101726.00;;;8.80
22828;BMP180;11580;52.562;13.418;2023-04-09T02:25:53;101721.00;;;8.80
22828;BMP180;11580;52.562;13.418;2023-04-09T02:28:20;101725.00;;;8.80
22828;BMP180;11580;52.562;13.418;2023-04-09T02:30:47;101725.00;;;8.80
22828;BMP180;11580;52.562;13.418;2023-04-09T02:33:16;101727.00;;;8.80
22828;BMP180;11580;52.562;13.418;2023-04-09T02:35:43;101721.00;;;8.70
22828;BMP180;11580;52.562;13.418;2023-04-09T02:38:10;101722.00;;;8.70
22828;BMP180;11580;52.562;13.418;2023-04-09T02:40:39;101727.00;;;8.70
22828;BMP180;11580;52.562;13.418;2023-04-09T02:43:07;101733.00;;;8.70
22828;BMP180;11580;52.562;13.418;2023-04-09T02:45:35;101724.00;;;8.70
22828;BMP180;11580;52.562;13.418;2023-04-09T02:48:03;101722.00;;;8.60
22828;BMP180;11580;52.562;13.418;2023-04-09T02:50:35;101719.00;;;8.60
22828;BMP180;11580;52.562;13.418;2023-04-09T02:53:02;101729.00;;;8.50
22828;BMP180;11580;52.562;13.418;2023-04-09T02:55:30;101730.00;;;8.50
22828;BMP180;11580;52.562;13.418;2023-04-09T02:57:58;101720.00;;;8.50
22828;BMP180;11580;52.562;13.418;2023-04-09T03:00:25;101727.00;;;8.40
22828;BMP180;11580;52.562;13.418;2023-04-09T03:02:54;101730.00;;;8.40
22828;BMP180;11580;52.562;13.418;2023-04-09T03:05:21;101733.00;;;8.30
22828;BMP180;11580;52.562;13.418;2023-04-09T03:07:50;101719.00;;;8.30
22828;BMP180;11580;52.562;13.418;2023-04-09T03:10:17;101722.00;;;8.20
22828;BMP180;11580;52.562;13.418;2023-04-09T03:12:44;101725.00;;;8.20
22828;BMP180;11580;52.562;13.418;2023-04-09T03:15:13;101720.00;;;8.20
22828;BMP180;11580;52.562;13.418;2023-04-09T03:17:40;101719.00;;;8.20
22828;BMP180;11580;52.562;13.418;2023-04-09T03:20:08;101718.00;;;8.10
22828;BMP180;11580;52.562;13.418;2023-04-09T03:22:38;101717.00;;;8.10
22828;BMP180;11580;52.562;13.418;2023-04-09T03:25:25;101707.00;;;8.10
22828;BMP180;11580;52.562;13.418;2023-04-09T03:27:53;101713.00;;;8.10
22828;BMP180;11580;52.562;13.418;2023-04-09T03:30:42;101711.00;;;8.10
22828;BMP180;11580;52.562;13.418;2023-04-09T03:33:10;101708.00;;;8.10
22828;BMP180;11580;52.562;13.418;2023-04-09T03:35:48;101715.00;;;8.10
22828;BMP180;11580;52.562;13.418;2023-04-09T03:38:19;101711.00;;;8.10
22828;BMP180;11580;52.562;13.418;2023-04-09T03:40:47;101708.00;;;8.10
22828;BMP180;11580;52.562;13.418;2023-04-09T03:43:14;101710.00;;;8.10
22828;BMP180;11580;52.562;13.418;2023-04-09T03:45:47;101704.00;;;8.20
22828;BMP180;11580;52.562;13.418;2023-04-09T03:48:25;101710.00;;;8.20
22828;BMP180;11580;52.562;13.418;2023-04-09T03:50:54;101719.00;;;8.30
22828;BMP180;11580;52.562;13.418;2023-04-09T03:53:29;101710.00;;;8.30
22828;BMP180;11580;52.562;13.418;2023-04-09T03:56:03;101704.00;;;8.40
22828;BMP180;11580;52.562;13.418;2023-04-09T03:58:32;101704.00;;;8.50
22828;BMP180;11580;52.562;13.418;2023-04-09T04:01:00;101716.00;;;8.50
22828;BMP180;11580;52.562;13.418;2023-04-09T04:03:36;101713.00;;;8.60
22828;BMP180;11580;52.562;13.418;2023-04-09T04:06:18;101716.00;;;8.70
22828;BMP180;11580;52.562;13.418;2023-04-09T04:09:06;101717.00;;;8.70
22828;BMP180;11580;52.562;13.418;2023-04-09T04:11:49;101702.00;;;8.80
22828;BMP180;11580;52.562;13.418;2023-04-09T04:14:18;101716.00;;;8.90
22828;BMP180;11580;52.562;13.418;2023-04-09T04:16:51;101706.00;;;8.90
22828;BMP180;11580;52.562;13.418;2023-04-09T04:19:21;101718.00;;;8.90
22828;BMP180;11580;52.562;13.418;2023-04-09T04:21:50;101723.00;;;8.90
22828;BMP180;11580;52.562;13.418;2023-04-09T04:24:18;101719.00;;;8.90
22828;BMP180;11580;52.562;13.418;2023-04-09T04:26:46;101716.00;;;9.00
22828;BMP180;11580;52.562;13.418;2023-04-09T04:29:18;101720.00;;;9.00
22828;BMP180;11580;52.562;13.418;2023-04-09T04:31:53;101725.00;;;9.00
22828;BMP180;11580;52.562;13.418;2023-04-09T04:34:23;101722.00;;;9.00
22828;BMP180;11580;52.562;13.418;2023-04-09T04:36:58;101734.00;;;9.00
22828;BMP180;11580;52.562;13.418;2023-04-09T04:39:30;101736.00;;;9.00
22828;BMP180;11580;52.562;13.418;2023-04-09T04:42:08;101734.00;;;9.10
22828;BMP180;11580;52.562;13.418;2023-04-09T04:44:37;101728.00;;;9.10
22828;BMP180;11580;52.562;13.418;2023-04-09T04:47:23;101729.00;;;9.20
22828;BMP180;11580;52.562;13.418;2023-04-09T04:49:51;101730.00;;;9.30
22828;BMP180;11580;52.562;13.418;2023-04-09T04:52:20;101727.00;;;9.40
22828;BMP180;11580;52.562;13.418;2023-04-09T04:54:51;101694.00;;;9.50
22828;BMP180;11580;52.562;13.418;2023-04-09T04:57:21;101731.00;;;9.50
22828;BMP180;11580;52.562;13.418;2023-04-09T04:59:50;101740.00;;;9.60
22828;BMP180;11580;52.562;13.418;2023-04-09T05:02:18;101737.00;;;9.70
22828;BMP180;11580;52.562;13.418;2023-04-09T05:04:54;101747.00;;;9.80
22828;BMP180;11580;52.562;13.418;2023-04-09T05:07:29;101741.00;;;9.80
22828;BMP180;11580;52.562;13.418;2023-04-09T05:09:57;101744.00;;;9.90
22828;BMP180;11580;52.562;13.418;2023-04-09T05:12:26;101739.00;;;10.00
22828;BMP180;11580;52.562;13.418;2023-04-09T05:14:54;101738.00;;;10.00
22828;BMP180;11580;52.562;13.418;2023-04-09T05:17:22;101747.00;;;10.10
22828;BMP180;11580;52.562;13.418;2023-04-09T05:19:53;101743.00;;;10.10
22828;BMP180;11580;52.562;13.418;2023-04-09T05:22:30;101751.00;;;10.20
22828;BMP180;11580;52.562;13.418;2023-04-09T05:24:57;101743.00;;;10.30
22828;BMP180;11580;52.562;13.418;2023-04-09T05:27:26;101751.00;;;10.30
22828;BMP180;11580;52.562;13.418;2023-04-09T05:30:00;101751.00;;;10.40
22828;BMP180;11580;52.562;13.418;2023-04-09T05:32:28;101746.00;;;10.50
22828;BMP180;11580;52.562;13.418;2023-04-09T05:34:56;101755.00;;;10.50
22828;BMP180;11580;52.562;13.418;2023-04-09T05:37:25;101757.00;;;10.60
22828;BMP180;11580;52.562;13.418;2023-04-09T05:39:53;101761.00;;;10.70
22828;BMP180;11580;52.562;13.418;2023-04-09T05:42:20;101767.00;;;10.80
22828;BMP180;11580;52.562;13.418;2023-04-09T05:44:57;101764.00;;;10.80
22828;BMP180;11580;52.562;13.418;2023-04-09T05:47:26;101765.00;;;10.90
22828;BMP180;11580;52.562;13.418;2023-04-09T05:50:23;101769.00;;;10.90
22828;BMP180;11580;52.562;13.418;2023-04-09T05:52:53;101770.00;;;10.90
22828;BMP180;11580;52.562;13.418;2023-04-09T05:55:21;101770.00;;;10.90
22828;BMP180;11580;52.562;13.418;2023-04-09T05:57:59;101779.00;;;10.90
22828;BMP180;11580;52.562;13.418;2023-04-09T06:00:26;101767.00;;;10.90
22828;BMP180;11580;52.562;13.418;2023-04-09T06:02:55;101770.00;;;11.00
22828;BMP180;11580;52.562;13.418;2023-04-09T06:05:22;101766.00;;;11.10
22828;BMP180;11580;52.562;13.418;2023-04-09T06:07:49;101768.00;;;11.10
22828;BMP180;11580;52.562;13.418;2023-04-09T06:10:16;101772.00;;;11.20
22828;BMP180;11580;52.562;13.418;2023-04-09T06:12:46;101763.00;;;11.30
22828;BMP180;11580;52.562;13.418;2023-04-09T06:15:14;101772.00;;;11.30
22828;BMP180;11580;52.562;13.418;2023-04-09T06:17:41;101773.00;;;11.40
22828;BMP180;11580;52.562;13.418;2023-04-09T06:20:10;101777.00;;;11.50
22828;BMP180;11580;52.562;13.418;2023-04-09T06:22:37;101775.00;;;11.50
22828;BMP180;11580;52.562;13.418;2023-04-09T06:25:06;101775.00;;;11.50
22828;BMP180;11580;52.562;13.418;2023-04-09T06:27:33;101779.00;;;11.60
22828;BMP180;11580;52.562;13.418;2023-04-09T06:30:00;101768.00;;;11.60
22828;BMP180;11580;52.562;13.418;2023-04-09T06:32:27;101777.00;;;11.70
22828;BMP180;11580;52.562;13.418;2023-04-09T06:34:55;101780.00;;;11.70
22828;BMP180;11580;52.562;13.418;2023-04-09T06:37:23;101778.00;;;11.80
22828;BMP180;11580;52.562;13.418;2023-04-09T06:39:50;101786.00;;;11.80
22828;BMP180;11580;52.562;13.418;2023-04-09T06:42:18;101786.00;;;11.90
22828;BMP180;11580;52.562;13.418;2023-04-09T06:44:54;101790.00;;;12.00
22828;BMP180;11580;52.562;13.418;2023-04-09T06:47:22;101788.00;;;12.00
22828;BMP180;11580;52.562;13.418;2023-04-09T06:49:49;101786.00;;;12.10
22828;BMP180;11580;52.562;13.418;2023-04-09T06:52:16;101793.00;;;12.10
22828;BMP180;11580;52.562;13.418;2023-04-09T06:54:45;101795.00;;;12.10
22828;BMP180;11580;52.562;13.418;2023-04-09T06:57:12;101790.00;;;12.20
22828;BMP180;11580;52.562;13.418;2023-04-09T06:59:39;101792.00;;;12.20
22828;BMP180;11580;52.562;13.418;2023-04-09T07:02:07;101805.00;;;12.20
22828;BMP180;11580;52.562;13.418;2023-04-09T07:04:35;101801.00;;;12.20
22828;BMP180;11580;52.562;13.418;2023-04-09T07:07:02;101797.00;;;12.30
22828;BMP180;11580;52.562;13.418;2023-04-09T07:09:29;101803.00;;;12.30
22828;BMP180;11580;52.562;13.418;2023-04-09T07:11:58;101800.00;;;12.40
22828;BMP180;11580;52.562;13.418;2023-04-09T07:14:25;101804.00;;;12.30
22828;BMP180;11580;52.562;13.418;2023-04-09T07:16:52;101811.00;;;12.30
22828;BMP180;11580;52.562;13.418;2023-04-09T07:19:19;101809.00;;;12.30
22828;BMP180;11580;52.562;13.418;2023-04-09T07:21:46;101807.00;;;12.20
22828;BMP180;11580;52.562;13.418;2023-04-09T07:24:14;101811.00;;;12.30
22828;BMP180;11580;52.562;13.418;2023-04-09T07:26:41;101809.00;;;12.30
22828;BMP180;11580;52.562;13.418;2023-04-09T07:29:10;101804.00;;;12.30
22828;BMP180;11580;52.562;13.418;2023-04-09T07:31:37;101802.00;;;12.30
22828;BMP180;11580;52.562;13.418;2023-04-09T07:34:04;101807.00;;;12.30
22828;BMP180;11580;52.562;13.418;2023-04-09T07:36:31;101813.00;;;12.30
22828;BMP180;11580;52.562;13.418;2023-04-09T07:38:58;101805.00;;;12.30
22828;BMP180;11580;52.562;13.418;2023-04-09T07:41:26;101809.00;;;12.30
22828;BMP180;11580;52.562;13.418;2023-04-09T07:43:53;101809.00;;;12.30
22828;BMP180;11580;52.562;13.418;2023-04-09T07:46:22;101805.00;;;12.40
22828;BMP180;11580;52.562;13.418;2023-04-09T07:48:49;101818.00;;;12.50
22828;BMP180;11580;52.562;13.418;2023-04-09T07:51:16;101808.00;;;12.60
22828;BMP180;11580;52.562;13.418;2023-04-09T07:53:43;101811.00;;;12.80
22828;BMP180;11580;52.562;13.418;2023-04-09T07:56:10;101817.00;;;12.90
22828;BMP180;11580;52.562;13.418;2023-04-09T07:58:38;101812.00;;;13.10
22828;BMP180;11580;52.562;13.418;2023-04-09T08:01:05;101821.00;;;13.20
22828;BMP180;11580;52.562;13.418;2023-04-09T08:03:34;101821.00;;;13.30
22828;BMP180;11580;52.562;13.418;2023-04-09T08:06:01;101819.00;;;13.40
22828;BMP180;11580;52.562;13.418;2023-04-09T08:08:28;101829.00;;;13.50
22828;BMP180;11580;52.562;13.418;2023-04-09T08:10:55;101830.00;;;13.50
22828;BMP180;11580;52.562;13.418;2023-04-09T08:13:23;101831.00;;;13.50
22828;BMP180;11580;52.562;13.418;2023-04-09T08:15:50;101834.00;;;13.50
22828;BMP180;11580;52.562;13.418;2023-04-09T08:18:17;101836.00;;;13.50
22828;BMP180;11580;52.562;13.418;2023-04-09T08:20:46;101841.00;;;13.50
22828;BMP180;11580;52.562;13.418;2023-04-09T08:23:13;101828.00;;;13.50
22828;BMP180;11580;52.562;13.418;2023-04-09T08:25:40;101839.00;;;13.50
22828;BMP180;11580;52.562;13.418;2023-04-09T08:28:07;101835.00;;;13.60
22828;BMP180;11580;52.562;13.418;2023-04-09T08:30:35;101838.00;;;13.60
22828;BMP180;11580;52.562;13.418;2023-04-09T08:33:02;101842.00;;;13.60
22828;BMP180;11580;52.562;13.418;2023-04-09T08:35:30;101836.00;;;13.70
22828;BMP180;11580;52.562;13.418;2023-04-09T08:37:59;101847.00;;;13.70
22828;BMP180;11580;52.562;13.418;2023-04-09T08:40:26;101843.00;;;13.80
22828;BMP180;11580;52.562;13.418;2023-04-09T08:42:54;101846.00;;;13.90
22828;BMP180;11580;52.562;13.418;2023-04-09T08:45:22;101845.00;;;13.90
22828;BMP180;11580;52.562;13.418;2023-04-09T08:47:50;101841.00;;;14.00
22828;BMP180;11580;52.562;13.418;2023-04-09T08:50:18;101842.00;;;14.10
22828;BMP180;11580;52.562;13.418;2023-04-09T08:52:47;101840.00;;;14.30
22828;BMP180;11580;52.562;13.418;2023-04-09T08:55:16;101837.00;;;14.40
22828;BMP180;11580;52.562;13.418;2023-04-09T08:57:43;101840.00;;;14.50
22828;BMP180;11580;52.562;13.418;2023-04-09T09:00:12;101843.00;;;14.60
22828;BMP180;11580;52.562;13.418;2023-04-09T09:03:04;101840.00;;;14.70
22828;BMP180;11580;52.562;13.418;2023-04-09T09:05:38;101840.00;;;14.70
22828;BMP180;11580;52.562;13.418;2023-04-09T09:08:07;101840.00;;;14.70
22828;BMP180;11580;52.562;13.418;2023-04-09T09:10:41;101846.00;;;14.80
22828;BMP180;11580;52.562;13.418;2023-04-09T09:13:21;101846.00;;;14.80
22828;BMP180;11580;52.562;13.418;2023-04-09T09:15:50;101845.00;;;14.80
22828;BMP180;11580;52.562;13.418;2023-04-09T09:18:20;101844.00;;;14.80
22828;BMP180;11580;52.562;13.418;2023-04-09T09:21:10;101839.00;;;14.80
22828;BMP180;11580;52.562;13.418;2023-04-09T09:23:37;101851.00;;;14.80
22828;BMP180;11580;52.562;13.418;2023-04-09T09:26:12;101848.00;;;15.00
22828;BMP180;11580;52.562;13.418;2023-04-09T09:28:41;101840.00;;;15.00
22828;BMP180;11580;52.562;13.418;2023-04-09T09:31:10;101805.00;;;15.20
22828;BMP180;11580;52.562;13.418;2023-04-09T09:33:38;101837.00;;;15.20
22828;BMP180;11580;52.562;13.418;2023-04-09T09:36:05;101850.00;;;15.40
22828;BMP180;11580;52.562;13.418;2023-04-09T09:38:50;101849.00;;;15.50
22828;BMP180;11580;52.562;13.418;2023-04-09T09:41:29;101848.00;;;15.50
22828;BMP180;11580;52.562;13.418;2023-04-09T09:43:57;101839.00;;;15.50
22828;BMP180;11580;52.562;13.418;2023-04-09T09:46:24;101848.00;;;15.60
22828;BMP180;11580;52.562;13.418;2023-04-09T09:48:53;101845.00;;;15.60
22828;BMP180;11580;52.562;13.418;2023-04-09T09:51:25;101845.00;;;15.60
22828;BMP180;11580;52.562;13.418;2023-04-09T09:53:56;101846.00;;;15.50
22828;BMP180;11580;52.562;13.418;2023-04-09T09:56:30;101840.00;;;15.50
22828;BMP180;11580;52.562;13.418;2023-04-09T09:59:09;101826.00;;;15.50
22828;BMP180;11580;52.562;13.418;2023-04-09T10:01:39;101834.00;;;15.50
22828;BMP180;11580;52.562;13.418;2023-04-09T10:04:12;101832.00;;;15.50
22828;BMP180;11580;52.562;13.418;2023-04-09T10:06:43;101829.00;;;15.50
22828;BMP180;11580;52.562;13.418;2023-04-09T10:09:11;101836.00;;;15.50
22828;BMP180;11580;52.562;13.418;2023-04-09T10:11:40;101832.00;;;15.50
22828;BMP180;11580;52.562;13.418;2023-04-09T10:14:11;101829.00;;;15.50
22828;BMP180;11580;52.562;13.418;2023-04-09T10:16:38;101832.00;;;15.50
22828;BMP180;11580;52.562;13.418;2023-04-09T10:19:06;101827.00;;;15.60
22828;BMP180;11580;52.562;13.418;2023-04-09T10:21:44;101827.00;;;15.60
22828;BMP180;11580;52.562;13.418;2023-04-09T10:24:17;101835.00;;;15.60
22828;BMP180;11580;52.562;13.418;2023-04-09T10:26:46;101827.00;;;15.60
22828;BMP180;11580;52.562;13.418;2023-04-09T10:29:15;101829.00;;;15.60
22828;BMP180;11580;52.562;13.418;2023-04-09T10:31:50;101826.00;;;15.50
22828;BMP180;11580;52.562;13.418;2023-04-09T10:34:21;101823.00;;;15.60
22828;BMP180;11580;52.562;13.418;2023-04-09T10:36:52;101800.00;;;15.60
22828;BMP180;11580;52.562;13.418;2023-04-09T10:39:19;101842.00;;;15.60
22828;BMP180;11580;52.562;13.418;2023-04-09T10:41:49;101831.00;;;15.70
22828;BMP180;11580;52.562;13.418;2023-04-09T10:44:25;101835.00;;;15.80
22828;BMP180;11580;52.562;13.418;2023-04-09T10:46:54;101831.00;;;15.90
22828;BMP180;11580;52.562;13.418;2023-04-09T10:49:23;101841.00;;;16.20
22828;BMP180;11580;52.562;13.418;2023-04-09T10:51:53;101840.00;;;16.30
22828;BMP180;11580;52.562;13.418;2023-04-09T10:54:41;101835.00;;;16.50
22828;BMP180;11580;52.562;13.418;2023-04-09T10:57:16;101837.00;;;16.60
22828;BMP180;11580;52.562;13.418;2023-04-09T10:59:47;101835.00;;;16.80
22828;BMP180;11580;52.562;13.418;2023-04-09T11:03:04;101835.00;;;16.80
22828;BMP180;11580;52.562;13.418;2023-04-09T11:05:36;101833.00;;;16.90
22828;BMP180;11580;52.562;13.418;2023-04-09T11:08:06;101827.00;;;16.90
22828;BMP180;11580;52.562;13.418;2023-04-09T11:10:34;101830.00;;;17.00
22828;BMP180;11580;52.562;13.418;2023-04-09T11:13:04;101835.00;;;17.00
22828;BMP180;11580;52.562;13.418;2023-04-09T11:15:33;101832.00;;;17.20
22828;BMP180;11580;52.562;13.418;2023-04-09T11:18:01;101835.00;;;17.30
22828;BMP180;11580;52.562;13.418;2023-04-09T11:20:29;101838.00;;;17.40
22828;BMP180;11580;52.562;13.418;2023-04-09T11:22:59;101835.00;;;17.40
22828;BMP180;11580;52.562;13.418;2023-04-09T11:25:28;101830.00;;;17.40
22828;BMP180;11580;52.562;13.418;2023-04-09T11:27:58;101840.00;;;17.50
22828;BMP180;11580;52.562;13.418;2023-04-09T11:30:26;101829.00;;;17.60
22828;BMP180;11580;52.562;13.418;2023-04-09T11:32:54;101828.00;;;17.60
22828;BMP180;11580;52.562;13.418;2023-04-09T11:35:22;101837.00;;;17.50
22828;BMP180;11580;52.562;13.418;2023-04-09T11:37:49;101831.00;;;17.50
22828;BMP180;11580;52.562;13.418;2023-04-09T11:40:20;101830.00;;;17.50
22828;BMP180;11580;52.562;13.418;2023-04-09T11:42:50;101821.00;;;17.60
22828;BMP180;11580;52.562;13.418;2023-04-09T11:45:19;101812.00;;;17.60
22828;BMP180;11580;52.562;13.418;2023-04-09T11:47:48;101813.00;;;17.60
22828;BMP180;11580;52.562;13.418;2023-04-09T11:50:15;101816.00;;;17.60
22828;BMP180;11580;52.562;13.418;2023-04-09T11:52:45;101821.00;;;17.60
22828;BMP180;11580;52.562;13.418;2023-04-09T11:55:23;101815.00;;;17.40
22828;BMP180;11580;52.562;13.418;2023-04-09T11:57:52;101810.00;;;17.20
22828;BMP180;11580;52.562;13.418;2023-04-09T12:00:20;101807.00;;;17.00
22828;BMP180;11580;52.562;13.418;2023-04-09T12:03:00;101808.00;;;16.70
22828;BMP180;11580;52.562;13.418;2023-04-09T12:05:29;101799.00;;;16.50
22828;BMP180;11580;52.562;13.418;2023-04-09T12:07:59;101806.00;;;16.30
22828;BMP180;11580;52.562;13.418;2023-04-09T12:10:27;101798.00;;;16.20
22828;BMP180;11580;52.562;13.418;2023-04-09T12:13:00;101806.00;;;16.00
22828;BMP180;11580;52.562;13.418;2023-04-09T12:15:33;101804.00;;;15.90
22828;BMP180;11580;52.562;13.418;2023-04-09T12:18:02;101800.00;;;15.80
22828;BMP180;11580;52.562;13.418;2023-04-09T12:20:32;101788.00;;;15.70
22828;BMP180;11580;52.562;13.418;2023-04-09T12:23:02;101795.00;;;15.70
22828;BMP180;11580;52.562;13.418;2023-04-09T12:25:29;101791.00;;;15.60
22828;BMP180;11580;52.562;13.418;2023-04-09T12:27:57;101788.00;;;15.60
22828;BMP180;11580;52.562;13.418;2023-04-09T12:30:25;101793.00;;;15.50
22828;BMP180;11580;52.562;13.418;2023-04-09T12:32:53;101774.00;;;15.50
22828;BMP180;11580;52.562;13.418;2023-04-09T12:35:22;101792.00;;;15.40
22828;BMP180;11580;52.562;13.418;2023-04-09T12:37:49;101789.00;;;15.30
22828;BMP180;11580;52.562;13.418;2023-04-09T12:40:18;101781.00;;;15.30
22828;BMP180;11580;52.562;13.418;2023-04-09T12:42:46;101784.00;;;15.30
22828;BMP180;11580;52.562;13.418;2023-04-09T12:45:16;101782.00;;;15.30
22828;BMP180;11580;52.562;13.418;2023-04-09T12:47:44;101774.00;;;15.30
22828;BMP180;11580;52.562;13.418;2023-04-09T12:50:12;101764.00;;;15.30
22828;BMP180;11580;52.562;13.418;2023-04-09T12:52:42;101769.00;;;15.30
22828;BMP180;11580;52.562;13.418;2023-04-09T12:55:11;101770.00;;;15.30
22828;BMP180;11580;52.562;13.418;2023-04-09T12:57:41;101761.00;;;15.40
22828;BMP180;11580;52.562;13.418;2023-04-09T13:00:09;101767.00;;;15.40
22828;BMP180;11580;52.562;13.418;2023-04-09T13:02:37;101769.00;;;15.50
22828;BMP180;11580;52.562;13.418;2023-04-09T13:05:05;101759.00;;;15.50
22828;BMP180;11580;52.562;13.418;2023-04-09T13:07:32;101757.00;;;15.50
22828;BMP180;11580;52.562;13.418;2023-04-09T13:10:01;101755.00;;;15.60
22828;BMP180;11580;52.562;13.418;2023-04-09T13:12:28;101756.00;;;15.60
22828;BMP180;11580;52.562;13.418;2023-04-09T13:14:55;101761.00;;;15.60
22828;BMP180;11580;52.562;13.418;2023-04-09T13:17:23;101755.00;;;15.60
22828;BMP180;11580;52.562;13.418;2023-04-09T13:19:51;101763.00;;;15.60
22828;BMP180;11580;52.562;13.418;2023-04-09T13:22:18;101750.00;;;15.70
22828;BMP180;11580;52.562;13.418;2023-04-09T13:24:45;101760.00;;;15.70
22828;BMP180;11580;52.562;13.418;2023-04-09T13:27:14;101752.00;;;15.70
22828;BMP180;11580;52.562;13.418;2023-04-09T13:29:41;101747.00;;;15.80
22828;BMP180;11580;52.562;13.418;2023-04-09T13:32:08;101751.00;;;15.90
22828;BMP180;11580;52.562;13.418;2023-04-09T13:34:38;101728.00;;;15.90
22828;BMP180;11580;52.562;13.418;2023-04-09T13:37:05;101743.00;;;15.90
22828;BMP180;11580;52.562;13.418;2023-04-09T13:39:33;101746.00;;;15.90
22828;BMP180;11580;52.562;13.418;2023-04-09T13:42:00;101750.00;;;16.00
22828;BMP180;11580;52.562;13.418;2023-04-09T13:44:29;101743.00;;;16.00
22828;BMP180;11580;52.562;13.418;2023-04-09T13:46:57;101741.00;;;16.00
22828;BMP180;11580;52.562;13.418;2023-04-09T13:49:24;101738.00;;;16.00
22828;BMP180;11580;52.562;13.418;2023-04-09T13:51:52;101729.00;;;16.10
22828;BMP180;11580;52.562;13.418;2023-04-09T13:54:20;101732.00;;;16.10
22828;BMP180;11580;52.562;13.418;2023-04-09T13:56:47;101734.00;;;16.10
22828;BMP180;11580;52.562;13.418;2023-04-09T13:59:16;101730.00;;;16.20
22828;BMP180;11580;52.562;13.418;2023-04-09T14:01:44;101733.00;;;16.20
22828;BMP180;11580;52.562;13.418;2023-04-09T14:04:11;101713.00;;;16.20
22828;BMP180;11580;52.562;13.418;2023-04-09T14:06:39;101721.00;;;16.30